createdAt,value
2017-08-07T00:06:18.768Z,38.4
2017-08-07T00:17:19.774Z,36.1
2017-08-07T00:28:20.072Z,36.2
2017-08-07T00:40:19.538Z,36.5
2017-08-07T00:51:19.358Z,35.2
2017-08-07T01:02:19.877Z,35.1
2017-08-07T01:13:19.439Z,33.4
2017-08-07T01:24:20.700Z,33.5
2017-08-07T01:35:19.416Z,33.1
2017-08-07T01:46:21.317Z,33.3
2017-08-07T01:57:20.149Z,32.9
2017-08-07T02:08:22.862Z,33.2
2017-08-07T02:19:20.556Z,31.9
2017-08-07T02:30:19.693Z,32.3
2017-08-07T02:41:20.520Z,32.1
2017-08-07T02:52:19.863Z,31.7
2017-08-07T03:03:19.531Z,31.6
2017-08-07T03:14:19.623Z,30.9
2017-08-07T03:25:18.909Z,30.7
2017-08-07T03:36:20.219Z,31.2
2017-08-07T03:47:19.655Z,30.7
2017-08-07T03:58:19.866Z,30.5
2017-08-07T04:09:19.723Z,30.7
2017-08-07T04:20:20.011Z,29.9
2017-08-07T04:31:19.504Z,29.8
2017-08-07T04:42:19.591Z,30.8
2017-08-07T04:53:19.939Z,30.6
2017-08-07T05:04:21.074Z,30.6
2017-08-07T05:15:19.411Z,31.2
2017-08-07T05:26:20.147Z,30.6
2017-08-07T05:37:18.745Z,30.4
2017-08-07T05:48:18.986Z,30.4
2017-08-07T05:59:19.493Z,30.6
2017-08-07T06:10:19.822Z,31.7
2017-08-07T06:21:19.521Z,31.7
2017-08-07T06:32:19.459Z,32.2
2017-08-07T06:43:19.292Z,32.4
2017-08-07T06:54:19.762Z,32.2
2017-08-07T07:05:18.901Z,32.8
2017-08-07T07:16:21.197Z,34.5
2017-08-07T07:27:19.705Z,36.8
2017-08-07T07:38:19.017Z,37.8
2017-08-07T07:49:18.934Z,38.1
2017-08-07T08:00:20.198Z,39.8
2017-08-07T08:11:19.397Z,40.8
2017-08-07T08:22:19.408Z,41.4
2017-08-07T08:33:19.068Z,40.8
2017-08-07T08:44:19.663Z,41.1
2017-08-07T08:55:19.658Z,40.8
2017-08-07T09:06:19.007Z,41.9
